Time;durP1;ratioP1;P1;durP2;ratioP2;P2;SDS_P1;SDS_P2;PMS_P1;PMS_P2;Temp;Humidity;BMP_temperature;BMP_pressure;BME280_temperature;BME280_humidity;BME280_pressure;Samples;Min_cycle;Max_cycle;Signal;HPM_P1;HPM_P2
2023/01/10 00:02:19;;;;;;;80.50;40.10;;;;;;;6.89;100.00;99725.31;104779;1264;98652;-74
2023/01/10 00:05:05;;;;;;;78.60;39.40;;;;;;;6.92;100.00;99719.00;104913;1267;99264;-74
2023/01/10 00:07:51;;;;;;;80.20;40.00;;;;;;;6.91;100.00;99718.70;104756;1267;97779;-74
2023/01/10 00:10:36;;;;;;;79.70;38.60;;;;;;;6.92;100.00;99720.92;104764;1264;95870;-73
2023/01/10 00:13:24;;;;;;;74.50;39.60;;;;;;;6.93;100.00;99720.08;104792;1264;95903;-74
2023/01/10 00:16:09;;;;;;;81.80;38.80;;;;;;;6.92;100.00;99723.02;104790;1263;99806;-74
2023/01/10 00:18:55;;;;;;;73.40;36.50;;;;;;;6.91;100.00;99720.99;104813;1270;100352;-75
2023/01/10 00:21:41;;;;;;;77.70;38.40;;;;;;;6.88;100.00;99720.17;104705;1269;97816;-75
2023/01/10 00:24:27;;;;;;;77.30;40.00;;;;;;;6.85;100.00;99722.39;104733;1263;95884;-76
2023/01/10 00:27:15;;;;;;;72.70;39.00;;;;;;;6.85;100.00;99726.92;104711;1266;97190;-74
2023/01/10 00:30:09;;;;;;;72.00;38.70;;;;;;;6.84;100.00;99727.41;104751;1267;98727;-74
2023/01/10 00:32:55;;;;;;;69.70;38.30;;;;;;;6.85;100.00;99731.69;104798;1262;100335;-75
2023/01/10 00:35:41;;;;;;;75.90;39.40;;;;;;;6.86;100.00;99733.04;104771;1267;98971;-75
2023/01/10 00:38:27;;;;;;;73.10;38.70;;;;;;;6.86;100.00;99736.41;104755;1266;97237;-76
2023/01/10 00:44:18;;;;;;;69.60;37.60;;;;;;;6.90;100.00;99748.34;104601;1267;98659;-75
2023/01/10 00:47:04;;;;;;;68.70;37.50;;;;;;;6.90;100.00;99753.49;104862;1264;100556;-76
2023/01/10 00:49:50;;;;;;;69.70;37.10;;;;;;;6.90;100.00;99761.61;104736;1266;98847;-74
2023/01/10 00:52:35;;;;;;;65.90;36.40;;;;;;;6.91;100.00;99762.43;104802;1268;97244;-74
2023/01/10 00:55:21;;;;;;;67.90;37.00;;;;;;;6.91;100.00;99769.64;104821;1266;95933;-75
2023/01/10 00:58:10;;;;;;;69.30;40.30;;;;;;;6.92;100.00;99776.95;104756;1267;99578;-75
2023/01/10 01:00:56;;;;;;;72.40;41.10;;;;;;;6.94;100.00;99778.73;104817;1267;99076;-75
2023/01/10 01:03:41;;;;;;;70.00;39.50;;;;;;;6.94;100.00;99780.66;104755;1266;97768;-75
2023/01/10 01:06:26;;;;;;;67.20;40.60;;;;;;;6.94;100.00;99787.69;104775;1263;95903;-76
2023/01/10 01:09:13;;;;;;;69.30;39.00;;;;;;;6.96;100.00;99789.14;104750;1278;95986;-75
2023/01/10 01:11:58;;;;;;;70.40;40.00;;;;;;;6.97;100.00;99792.84;104769;1266;99639;-75
2023/01/10 01:14:44;;;;;;;71.80;37.70;;;;;;;6.99;100.00;99795.52;105580;1253;100365;-74
2023/01/10 01:17:30;;;;;;;66.70;38.50;;;;;;;6.98;100.00;99799.36;105328;1259;97759;-75
2023/01/10 01:20:16;;;;;;;68.00;38.40;;;;;;;6.97;100.00;99809.74;105487;1256;96524;-75
2023/01/10 01:23:02;;;;;;;64.60;34.90;;;;;;;6.96;100.00;99813.62;105191;1260;96566;-75
2023/01/10 01:25:52;;;;;;;67.50;36.40;;;;;;;6.93;100.00;99819.64;105401;1254;100005;-74
2023/01/10 01:28:37;;;;;;;66.70;35.50;;;;;;;6.92;100.00;99823.30;105409;1254;99087;-75
2023/01/10 01:31:23;;;;;;;62.50;35.60;;;;;;;6.91;100.00;99824.09;105384;1257;97697;-75
2023/01/10 01:34:08;;;;;;;62.50;34.90;;;;;;;6.93;100.00;99826.06;105356;1257;96611;-76
2023/01/10 01:36:55;;;;;;;58.90;33.80;;;;;;;6.93;100.00;99826.33;105375;1257;97212;-74
2023/01/10 01:39:41;;;;;;;68.40;36.40;;;;;;;6.94;100.00;99829.08;105351;1258;100665;-74
2023/01/10 01:42:33;;;;;;;58.40;32.90;;;;;;;6.94;100.00;99826.75;105335;1257;100071;-76
2023/01/10 01:45:21;;;;;;;64.20;34.40;;;;;;;6.93;100.00;99828.98;105302;1256;97726;-74
2023/01/10 01:48:14;;;;;;;60.30;33.20;;;;;;;6.94;100.00;99826.92;105674;1256;96695;-76
2023/01/10 01:51:09;;;;;;;63.90;34.00;;;;;;;6.95;100.00;99830.86;105420;1257;97145;-76
2023/01/10 01:54:06;;;;;;;57.80;35.20;;;;;;;6.94;100.00;99834.60;106348;1256;101355;-74
2023/01/10 01:57:13;;;;;;;65.00;34.40;;;;;;;6.95;100.00;99839.81;105388;1257;100534;-74
2023/01/10 02:00:01;;;;;;;60.60;34.00;;;;;;;6.95;100.00;99842.08;105373;1255;98015;-77
2023/01/10 02:02:51;;;;;;;65.30;34.80;;;;;;;6.96;100.00;99840.02;105492;1254;96622;-76
2023/01/10 02:05:39;;;;;;;61.70;35.60;;;;;;;6.98;100.00;99842.28;105360;1268;98563;-74
2023/01/10 02:08:25;;;;;;;60.20;35.10;;;;;;;6.99;100.00;99847.96;105408;1254;101553;-74
2023/01/10 02:11:11;;;;;;;61.80;33.80;;;;;;;7.02;100.00;99858.20;105447;1254;100394;-75
2023/01/10 02:13:58;;;;;;;62.90;34.70;;;;;;;7.03;100.00;99859.81;105433;1257;98958;-74
2023/01/10 02:16:43;;;;;;;69.80;38.40;;;;;;;7.03;100.00;99860.67;105319;1257;96629;-74
2023/01/10 02:19:53;;;;;;;57.60;34.60;;;;;;;7.03;100.00;99862.98;105631;1254;97161;-77
2023/01/10 02:22:53;;;;;;;61.70;35.70;;;;;;;7.02;100.00;99862.26;105341;1255;102278;-75
2023/01/10 02:26:00;;;;;;;64.80;35.50;;;;;;;7.02;100.00;99860.86;105443;1256;99069;-75
2023/01/10 02:29:08;;;;;;;64.20;37.10;;;;;;;7.00;100.00;99862.84;105259;1260;98982;-75
2023/01/10 02:32:15;;;;;;;64.20;37.30;;;;;;;6.98;100.00;99866.92;105354;1254;96683;-74
2023/01/10 02:35:19;;;;;;;65.00;37.60;;;;;;;6.98;100.00;99871.38;105526;1257;97174;-75
2023/01/10 02:38:19;;;;;;;60.20;35.10;;;;;;;6.96;100.00;99875.56;105388;1258;99977;-74
2023/01/10 02:41:08;;;;;;;63.40;38.70;;;;;;;6.94;100.00;99878.10;105391;1258;99849;-75
2023/01/10 02:44:02;;;;;;;61.40;34.00;;;;;;;6.92;100.00;99881.15;105368;1257;98417;-75
2023/01/10 02:46:48;;;;;;;57.50;35.00;;;;;;;6.91;100.00;99884.16;105352;1257;96606;-75
2023/01/10 02:49:45;;;;;;;56.70;32.90;;;;;;;6.92;100.00;99887.25;105482;1254;96353;-76
2023/01/10 02:52:31;;;;;;;61.20;33.40;;;;;;;6.93;100.00;99886.93;105498;1256;100139;-75
2023/01/10 02:55:17;;;;;;;53.20;32.90;;;;;;;6.95;100.00;99886.98;105415;1258;100021;-75
2023/01/10 02:58:27;;;;;;;62.10;33.60;;;;;;;6.96;100.00;99880.45;105555;1256;97796;-74
2023/01/10 03:01:43;;;;;;;55.10;33.60;;;;;;;6.98;100.00;99885.52;105285;1257;96879;-76
2023/01/10 03:04:52;;;;;;;56.20;33.00;;;;;;;6.99;100.00;99890.64;105347;1258;97135;-75
2023/01/10 03:08:12;;;;;;;57.50;33.30;;;;;;;6.97;100.00;99895.48;105325;1256;100014;-74
2023/01/10 03:11:07;;;;;;;60.50;34.60;;;;;;;6.99;100.00;99899.52;105373;1256;99080;-75
2023/01/10 03:13:59;;;;;;;58.20;33.10;;;;;;;7.00;100.00;99902.08;105397;1255;98964;-74
2023/01/10 03:16:51;;;;;;;56.80;33.70;;;;;;;7.00;100.00;99904.14;105314;1256;96607;-76
2023/01/10 03:19:47;;;;;;;55.70;32.40;;;;;;;6.97;100.00;99904.63;105432;1258;97084;-75
2023/01/10 03:22:38;;;;;;;56.10;32.50;;;;;;;6.94;100.00;99907.39;105325;1257;101283;-75
2023/01/10 03:25:27;;;;;;;54.30;32.00;;;;;;;6.92;100.00;99907.65;105487;1259;99247;-76
2023/01/10 03:28:22;;;;;;;57.30;32.60;;;;;;;6.93;100.00;99904.86;105365;1253;98975;-76
2023/01/10 03:31:13;;;;;;;57.70;33.80;;;;;;;6.94;100.00;99906.66;105383;1256;97138;-77
2023/01/10 03:33:58;;;;;;;55.40;31.90;;;;;;;6.92;100.00;99908.17;105451;1259;96594;-74
2023/01/10 03:36:56;;;;;;;57.50;32.50;;;;;;;6.87;100.00;99909.86;105365;1258;99988;-75
2023/01/10 03:39:57;;;;;;;53.40;31.80;;;;;;;6.83;100.00;99915.20;105197;1258;100333;-74
2023/01/10 03:46:22;;;;;;;49.70;29.90;;;;;;;6.77;100.00;99922.14;105435;1254;96613;-75
2023/01/10 03:49:10;;;;;;;51.00;29.40;;;;;;;6.76;100.00;99924.38;105348;1258;97872;-74
2023/01/10 03:51:57;;;;;;;56.30;32.20;;;;;;;6.75;100.00;99927.62;105515;1259;100161;-77
2023/01/10 03:54:44;;;;;;;57.40;29.70;;;;;;;6.74;100.00;99929.70;105369;1253;99050;-74
2023/01/10 03:57:30;;;;;;;46.70;28.10;;;;;;;6.74;100.00;99930.71;105357;1258;99390;-75
2023/01/10 04:00:16;;;;;;;45.70;28.20;;;;;;;6.69;100.00;99930.52;105486;1267;97779;-75
2023/01/10 04:03:02;;;;;;;47.40;26.90;;;;;;;6.64;100.00;99937.78;105489;1258;96518;-75
2023/01/10 04:05:47;;;;;;;45.50;27.20;;;;;;;6.59;100.00;99941.88;105281;1256;100008;-75
2023/01/10 04:08:33;;;;;;;49.10;29.40;;;;;;;6.54;100.00;99944.00;105402;1256;99997;-74
2023/01/10 04:11:18;;;;;;;51.10;28.40;;;;;;;6.49;100.00;99943.94;105328;1258;97746;-75
2023/01/10 04:14:04;;;;;;;45.20;27.50;;;;;;;6.44;100.00;99943.60;105495;1259;97225;-75
2023/01/10 04:16:49;;;;;;;48.10;27.80;;;;;;;6.41;100.00;99945.73;105330;1254;96683;-75
2023/01/10 04:19:35;;;;;;;47.50;27.50;;;;;;;6.38;100.00;99951.23;105331;1257;101026;-74
2023/01/10 04:22:20;;;;;;;46.00;27.10;;;;;;;6.35;100.00;99963.35;105366;1258;100508;-74
2023/01/10 04:25:07;;;;;;;45.20;25.80;;;;;;;6.31;100.00;99973.14;105526;1257;97732;-74
2023/01/10 04:27:52;;;;;;;48.30;26.80;;;;;;;6.30;100.00;99981.34;105328;1256;96624;-74
2023/01/10 04:30:38;;;;;;;47.10;26.40;;;;;;;6.30;100.00;99984.80;105597;1257;97088;-74
2023/01/10 04:33:23;;;;;;;46.10;28.50;;;;;;;6.29;100.00;99988.25;105265;1258;101911;-74
2023/01/10 04:36:08;;;;;;;43.60;24.80;;;;;;;6.31;100.00;99994.29;105339;1256;100096;-75
2023/01/10 04:38:54;;;;;;;41.90;26.20;;;;;;;6.31;100.00;100001.94;105434;1258;97712;-74
2023/01/10 04:41:40;;;;;;;44.50;26.20;;;;;;;6.31;100.00;100005.55;105312;1258;96604;-74
2023/01/10 04:44:25;;;;;;;44.60;24.30;;;;;;;6.32;100.00;100009.58;105375;1257;97146;-74
2023/01/10 04:47:11;;;;;;;41.90;24.60;;;;;;;6.30;100.00;100011.62;105398;1256;101524;-75
2023/01/10 04:49:57;;;;;;;41.60;25.10;;;;;;;6.29;100.00;100017.25;105420;1256;99036;-76
2023/01/10 04:52:42;;;;;;;43.40;24.80;;;;;;;6.28;100.00;100026.15;105327;1258;98983;-75
2023/01/10 04:55:28;;;;;;;39.30;24.30;;;;;;;6.27;100.00;100035.48;105444;1253;96598;-75
2023/01/10 04:58:13;;;;;;;41.50;24.30;;;;;;;6.27;100.00;100046.16;105448;1257;97123;-75
2023/01/10 05:00:59;;;;;;;41.30;25.50;;;;;;;6.27;100.00;100053.45;105471;1257;99976;-75
2023/01/10 05:03:46;;;;;;;43.00;25.20;;;;;;;6.24;100.00;100058.14;105545;1254;100343;-75
2023/01/10 05:06:32;;;;;;;41.90;24.80;;;;;;;6.22;100.00;100064.77;105292;1256;98951;-74
2023/01/10 05:09:17;;;;;;;40.80;25.20;;;;;;;6.21;100.00;100069.34;105554;1256;96603;-73
2023/01/10 05:12:03;;;;;;;38.50;24.00;;;;;;;6.17;100.00;100073.27;105384;1258;97126;-75
2023/01/10 05:14:48;;;;;;;41.10;24.60;;;;;;;6.14;100.00;100076.34;105313;1258;99974;-75
2023/01/10 05:17:34;;;;;;;43.80;25.50;;;;;;;6.12;100.00;100080.97;105345;1257;99414;-74
2023/01/10 05:20:20;;;;;;;42.70;25.70;;;;;;;6.10;100.00;100085.78;105313;1258;97684;-74
2023/01/10 05:23:05;;;;;;;42.50;25.30;;;;;;;6.09;100.00;100091.38;105446;1258;97325;-75
2023/01/10 05:25:51;;;;;;;41.00;25.20;;;;;;;6.09;100.00;100099.41;105394;1258;97140;-74
2023/01/10 05:28:37;;;;;;;42.00;25.20;;;;;;;6.08;100.00;100103.16;105386;1254;99991;-74
2023/01/10 05:31:23;;;;;;;41.70;26.40;;;;;;;6.06;100.00;100107.20;105415;1257;99049;-74
2023/01/10 05:34:11;;;;;;;44.40;26.80;;;;;;;6.04;100.00;100110.09;105404;1256;98953;-75
2023/01/10 05:36:57;;;;;;;42.10;26.20;;;;;;;6.02;100.00;100113.65;105568;1257;96510;-75
2023/01/10 05:39:42;;;;;;;45.50;27.50;;;;;;;5.99;100.00;100118.54;105393;1254;97160;-75
2023/01/10 05:42:28;;;;;;;45.00;26.50;;;;;;;5.96;100.00;100123.51;105515;1254;100979;-74
2023/01/10 05:45:13;;;;;;;45.40;26.70;;;;;;;5.99;100.00;100131.58;105466;1254;100318;-74
2023/01/10 05:47:59;;;;;;;45.30;27.10;;;;;;;6.03;100.00;100135.88;105408;1257;98458;-74
2023/01/10 05:50:45;;;;;;;45.60;28.00;;;;;;;6.07;100.00;100138.42;105430;1257;96602;-75
2023/01/10 05:53:31;;;;;;;47.80;29.10;;;;;;;6.09;100.00;100145.80;105503;1254;97215;-74
2023/01/10 05:56:16;;;;;;;44.90;28.20;;;;;;;6.11;100.00;100152.89;105379;1254;100887;-74
2023/01/10 05:59:02;;;;;;;46.70;28.40;;;;;;;6.08;100.00;100157.94;105469;1257;99195;-74
2023/01/10 06:01:47;;;;;;;49.20;30.40;;;;;;;6.08;100.00;100164.55;105514;1254;97746;-74
2023/01/10 06:04:33;;;;;;;51.00;30.30;;;;;;;6.08;100.00;100170.70;105432;1254;98167;-74
2023/01/10 06:07:19;;;;;;;49.40;30.80;;;;;;;6.08;100.00;100174.85;105400;1257;97324;-74
2023/01/10 06:10:04;;;;;;;52.60;29.90;;;;;;;6.08;100.00;100181.02;105540;1258;101744;-74
2023/01/10 06:12:50;;;;;;;48.90;29.50;;;;;;;6.12;100.00;100186.48;105433;1254;99903;-75
2023/01/10 06:15:35;;;;;;;51.60;27.60;;;;;;;6.11;100.00;100193.60;105415;1257;98588;-75
2023/01/10 06:18:21;;;;;;;51.30;30.60;;;;;;;6.06;100.00;100193.84;105368;1254;97052;-74
2023/01/10 06:21:07;;;;;;;52.90;30.20;;;;;;;6.01;100.00;100198.83;105385;1253;97874;-74
2023/01/10 06:23:53;;;;;;;46.70;28.00;;;;;;;5.95;100.00;100207.50;105404;1254;99929;-74
2023/01/10 06:26:38;;;;;;;51.80;29.70;;;;;;;5.89;100.00;100216.27;105444;1253;99073;-75
2023/01/10 06:29:23;;;;;;;52.10;30.50;;;;;;;5.85;100.00;100221.88;105467;1253;99043;-75
2023/01/10 06:32:09;;;;;;;52.00;28.20;;;;;;;5.81;100.00;100230.60;105516;1257;96687;-76
2023/01/10 06:34:55;;;;;;;51.10;27.90;;;;;;;5.79;100.00;100231.52;105552;1253;97023;-74
2023/01/10 06:37:40;;;;;;;48.00;27.50;;;;;;;5.79;100.00;100238.56;105444;1256;100713;-74
2023/01/10 06:40:27;;;;;;;52.50;28.00;;;;;;;5.77;100.00;100243.42;105518;1258;99069;-74
2023/01/10 06:43:13;;;;;;;51.60;26.90;;;;;;;5.75;100.00;100244.90;105572;1258;97835;-75
2023/01/10 06:45:58;;;;;;;47.70;26.00;;;;;;;5.71;100.00;100245.90;105413;1256;96596;-74
2023/01/10 06:48:44;;;;;;;46.80;28.10;;;;;;;5.67;100.00;100249.45;105499;1254;96571;-74
2023/01/10 06:51:30;;;;;;;52.60;27.80;;;;;;;5.66;100.00;100253.73;105608;1255;101164;-75
2023/01/10 06:54:16;;;;;;;51.60;28.40;;;;;;;5.64;100.00;100254.26;105435;1256;100378;-74
2023/01/10 06:57:01;;;;;;;45.70;27.10;;;;;;;5.61;100.00;100260.56;105399;1256;97667;-76
2023/01/10 06:59:47;;;;;;;46.10;26.50;;;;;;;5.57;100.00;100264.53;105313;1255;96504;-74
2023/01/10 07:02:33;;;;;;;60.40;29.40;;;;;;;5.55;100.00;100268.64;105485;1258;97043;-75
2023/01/10 07:05:20;;;;;;;49.30;28.30;;;;;;;5.54;100.00;100273.43;105222;1258;99922;-74
2023/01/10 07:08:06;;;;;;;50.90;27.70;;;;;;;5.52;100.00;100276.26;105473;1257;99205;-75
2023/01/10 07:10:51;;;;;;;51.20;26.50;;;;;;;5.50;100.00;100277.94;105425;1256;98614;-74
2023/01/10 07:13:37;;;;;;;54.00;27.90;;;;;;;5.47;100.00;100282.73;105611;1258;96616;-75
2023/01/10 07:16:22;;;;;;;52.20;28.70;;;;;;;5.46;100.00;100291.44;105239;1254;97135;-74
2023/01/10 07:19:08;;;;;;;47.30;26.90;;;;;;;5.43;100.00;100294.67;105465;1254;101620;-75
2023/01/10 07:21:54;;;;;;;51.50;27.70;;;;;;;5.43;100.00;100297.93;105262;1258;99133;-75
2023/01/10 07:24:39;;;;;;;56.70;29.60;;;;;;;5.43;100.00;100298.47;105230;1258;98972;-75
2023/01/10 07:27:25;;;;;;;52.70;27.70;;;;;;;5.43;100.00;100296.48;105230;1257;97150;-75
2023/01/10 07:30:10;;;;;;;57.20;28.70;;;;;;;5.43;100.00;100300.60;105257;1256;96605;-75
2023/01/10 07:32:57;;;;;;;51.70;28.00;;;;;;;5.42;100.00;100307.98;105393;1256;99990;-76
2023/01/10 07:35:42;;;;;;;52.70;30.00;;;;;;;5.42;100.00;100312.88;105503;1254;100324;-74
2023/01/10 07:38:28;;;;;;;52.20;28.50;;;;;;;5.42;100.00;100312.88;105354;1253;97735;-75
2023/01/10 07:41:14;;;;;;;52.40;27.50;;;;;;;5.42;100.00;100319.95;105350;1254;97296;-75
2023/01/10 07:44:00;;;;;;;54.30;27.70;;;;;;;5.45;100.00;100322.48;105298;1259;97168;-74
2023/01/10 07:46:45;;;;;;;54.00;28.50;;;;;;;5.49;100.00;100320.16;105393;1256;99969;-76
2023/01/10 07:49:30;;;;;;;58.20;28.50;;;;;;;5.48;100.00;100321.13;105618;1253;100353;-75
2023/01/10 07:52:16;;;;;;;54.10;26.00;;;;;;;5.44;100.00;100322.61;105500;1257;98629;-75
2023/01/10 07:55:01;;;;;;;55.40;27.20;;;;;;;5.43;100.00;100326.62;105555;1256;97983;-75
2023/01/10 07:57:50;;;;;;;53.70;27.20;;;;;;;5.40;100.00;100329.08;106524;1254;97047;-81
2023/01/10 08:00:37;;;;;;;56.80;26.70;;;;;;;5.36;100.00;100330.59;106325;1254;101256;-81
2023/01/10 08:03:23;;;;;;;53.50;26.70;;;;;;;5.31;100.00;100329.86;106033;1258;99183;-82
2023/01/10 08:06:10;;;;;;;50.80;26.80;;;;;;;5.29;100.00;100335.70;106461;1259;97903;-81
2023/01/10 08:08:56;;;;;;;55.10;26.10;;;;;;;5.26;100.00;100338.50;106546;1254;97624;-78
2023/01/10 08:11:42;;;;;;;51.30;28.10;;;;;;;5.24;100.00;100342.46;105717;1254;97045;-79
2023/01/10 08:14:27;;;;;;;54.60;26.60;;;;;;;5.23;100.00;100344.73;105671;1258;101038;-79
2023/01/10 08:17:12;;;;;;;51.00;27.00;;;;;;;5.23;100.00;100346.32;105719;1254;99320;-76
2023/01/10 08:19:58;;;;;;;50.40;24.30;;;;;;;5.20;100.00;100349.98;105598;1259;98432;-76
2023/01/10 08:22:44;;;;;;;52.50;27.00;;;;;;;5.17;100.00;100355.19;105542;1256;96645;-74
2023/01/10 08:25:29;;;;;;;53.00;26.00;;;;;;;5.16;100.00;100353.59;105489;1256;97831;-76
2023/01/10 08:28:14;;;;;;;50.70;26.10;;;;;;;5.16;100.00;100359.54;105502;1254;101272;-76
2023/01/10 08:31:08;;;;;;;50.20;26.70;;;;;;;5.16;100.00;100360.23;105253;1260;99187;-75
2023/01/10 08:33:55;;;;;;;48.30;24.10;;;;;;;5.18;100.00;100361.89;105682;1254;97677;-75
2023/01/10 08:36:43;;;;;;;51.50;26.10;;;;;;;5.17;100.00;100366.07;105994;1255;96642;-83
2023/01/10 08:39:30;;;;;;;49.50;25.10;;;;;;;5.16;100.00;100368.45;106232;1260;97139;-83
2023/01/10 08:42:16;;;;;;;54.00;26.90;;;;;;;5.14;100.00;100368.95;106121;1258;101283;-82
2023/01/10 08:45:25;;;;;;;51.40;27.80;;;;;;;5.12;100.00;100372.09;106057;1256;101817;-75
2023/01/10 08:48:10;;;;;;;52.60;27.20;;;;;;;5.11;100.00;100374.04;105721;1258;98985;-82
2023/01/10 08:50:56;;;;;;;54.20;27.10;;;;;;;5.12;100.00;100379.09;106207;1254;96543;-85
2023/01/10 08:53:42;;;;;;;50.30;26.90;;;;;;;5.16;100.00;100383.32;106286;1253;96612;-75
2023/01/10 08:56:29;;;;;;;55.90;27.80;;;;;;;5.18;100.00;100383.05;105611;1256;100020;-76
2023/01/10 08:59:15;;;;;;;57.90;26.70;;;;;;;5.21;100.00;100384.88;105342;1256;100369;-76
2023/01/10 09:02:00;;;;;;;49.80;27.20;;;;;;;5.23;100.00;100388.40;105485;1254;97712;-75
2023/01/10 09:04:46;;;;;;;57.90;29.10;;;;;;;5.25;100.00;100393.51;105446;1253;96603;-75
2023/01/10 09:07:31;;;;;;;54.10;28.50;;;;;;;5.25;100.00;100400.73;105332;1253;97119;-75
2023/01/10 09:10:17;;;;;;;54.10;28.10;;;;;;;5.25;100.00;100407.16;105448;1253;99989;-73
2023/01/10 09:13:03;;;;;;;55.30;27.50;;;;;;;5.27;100.00;100408.58;105548;1253;99056;-76
2023/01/10 09:15:50;;;;;;;62.60;27.60;;;;;;;5.27;100.00;100410.96;105447;1270;99532;-77
2023/01/10 09:18:36;;;;;;;56.90;27.80;;;;;;;5.27;100.00;100411.20;105355;1258;96525;-76
2023/01/10 09:21:21;;;;;;;62.10;28.50;;;;;;;5.25;100.00;100416.48;105427;1256;97133;-76
2023/01/10 09:24:07;;;;;;;62.00;28.40;;;;;;;5.22;100.00;100418.04;105389;1259;100180;-77
2023/01/10 12:40:52;;;;;;;43.70;24.60;;;;;;;5.69;100.00;100577.55;107013;1257;101848;-74
2023/01/10 12:47:00;;;;;;;41.20;23.10;;;;;;;5.71;100.00;100589.43;105663;1257;98927;-76
2023/01/10 12:49:58;;;;;;;37.30;22.00;;;;;;;5.75;100.00;100595.17;105367;1257;96614;-74
2023/01/10 12:53:08;;;;;;;38.90;22.90;;;;;;;5.75;100.00;100599.03;105705;1257;96668;-80
2023/01/10 12:55:56;;;;;;;40.70;21.10;;;;;;;5.73;100.00;100600.51;105728;1262;100060;-78
2023/01/10 12:58:46;;;;;;;42.30;23.90;;;;;;;5.73;100.00;100599.98;105893;1259;99082;-78
2023/01/10 13:01:35;;;;;;;47.10;24.40;;;;;;;5.73;100.00;100602.79;106060;1263;97791;-80
2023/01/10 13:04:24;;;;;;;48.30;25.10;;;;;;;5.74;100.00;100610.02;106595;1261;96672;-82
2023/01/10 13:07:12;;;;;;;39.80;22.50;;;;;;;5.75;100.00;100611.45;106207;1263;96539;-81
2023/01/10 13:10:02;;;;;;;44.70;25.30;;;;;;;5.76;100.00;100619.51;105989;1260;100088;-80
2023/01/10 13:12:58;;;;;;;41.50;25.00;;;;;;;5.78;100.00;100627.46;106366;1260;99111;-80
2023/01/10 13:15:51;;;;;;;43.10;26.30;;;;;;;5.80;100.00;100635.73;106401;1260;97746;-82
2023/01/10 13:18:37;;;;;;;41.10;24.00;;;;;;;5.85;100.00;100635.34;106576;1258;96705;-81
2023/01/10 13:21:23;;;;;;;45.20;25.00;;;;;;;5.86;100.00;100641.56;106185;1263;96557;-80
2023/01/10 13:24:14;;;;;;;41.90;23.70;;;;;;;5.91;100.00;100647.41;106170;1258;100464;-74
2023/01/10 13:27:01;;;;;;;;;;;;;;;5.95;100.00;100652.64;105176;1261;110955;-74
2023/01/10 13:29:47;;;;;;;38.00;22.20;;;;;;;5.96;100.00;100658.39;105149;1261;98693;-75
2023/01/10 13:32:35;;;;;;;40.40;22.80;;;;;;;5.99;100.00;100661.99;105223;1257;96574;-75
2023/01/10 13:35:20;;;;;;;41.80;23.60;;;;;;;5.96;100.00;100677.39;105684;1262;97224;-76
2023/01/10 13:38:16;;;;;;;40.60;23.20;;;;;;;5.95;100.00;100684.09;105378;1262;100017;-75
2023/01/10 13:43:17;;;;;;;40.30;24.10;;;;;;;5.96;100.00;100686.13;105346;1264;99723;-75
2023/01/10 13:44:17;;;;;;;40.30;24.00;;;;;;;5.99;100.00;100689.84;108212;1256;97794;-76
2023/01/10 13:47:03;;;;;;;41.10;24.30;;;;;;;6.04;100.00;100691.25;105900;1262;96605;-75
2023/01/10 13:49:48;;;;;;;45.40;26.00;;;;;;;6.06;100.00;100694.06;105288;1262;96595;-75
2023/01/10 13:52:34;;;;;;;45.70;24.90;;;;;;;6.08;100.00;100690.27;105172;1261;100824;-74
2023/01/10 13:55:22;;;;;;;41.80;24.00;;;;;;;6.12;100.00;100691.88;105209;1262;99081;-74
2023/01/10 13:58:08;;;;;;;40.00;23.60;;;;;;;6.13;100.00;100694.83;105107;1256;97752;-74
2023/01/10 14:04:04;;;;;;;40.90;23.70;;;;;;;6.09;100.00;100703.31;105147;1256;97061;-75
2023/01/10 14:07:34;;;;;;;43.60;24.40;;;;;;;6.11;100.00;100709.17;105532;1262;100079;-86
2023/01/10 14:10:25;;;;;;;40.20;23.30;;;;;;;6.08;100.00;100710.52;106138;1259;100373;-81
2023/01/10 14:13:21;;;;;;;41.70;23.90;;;;;;;6.07;100.00;100709.18;106078;1265;97734;-80
2023/01/10 14:16:45;;;;;;;45.20;25.20;;;;;;;6.07;100.00;100712.20;106020;1256;97391;-83
2023/01/10 14:19:33;;;;;;;47.80;26.60;;;;;;;6.08;100.00;100723.09;106336;1261;96406;-82
2023/01/10 14:22:34;;;;;;;44.90;26.10;;;;;;;6.10;100.00;100729.61;106077;1262;101225;-82
2023/01/10 14:25:21;;;;;;;46.90;25.70;;;;;;;6.10;100.00;100736.05;105976;1256;101356;-81
2023/01/10 14:28:26;;;;;;;45.20;27.40;;;;;;;6.09;99.98;100739.01;105988;1256;98304;-84
2023/01/10 14:31:20;;;;;;;46.70;27.00;;;;;;;6.07;99.95;100742.90;105942;1260;96694;-80
2023/01/10 14:34:12;;;;;;;43.90;24.80;;;;;;;6.07;99.99;100745.21;106375;1263;96638;-85
2023/01/10 14:37:24;;;;;;;52.10;28.10;;;;;;;6.05;99.85;100747.20;106227;1259;100122;-75
2023/01/10 14:40:28;;;;;;;48.30;27.60;;;;;;;6.04;99.82;100747.42;105274;1262;100516;-75
2023/01/10 14:43:17;;;;;;;48.00;28.60;;;;;;;6.05;99.72;100746.70;105070;1260;98366;-74
2023/01/10 14:46:12;;;;;;;45.70;26.90;;;;;;;6.01;99.52;100743.01;105207;1256;96595;-76
2023/01/10 14:49:31;;;;;;;47.50;28.00;;;;;;;5.97;99.26;100745.37;106245;1259;97072;-88
2023/01/10 14:52:19;;;;;;;49.00;27.10;;;;;;;5.92;99.26;100744.95;106340;1262;102088;-76
2023/01/10 14:55:16;;;;;;;46.90;27.10;;;;;;;5.91;99.42;100741.39;105341;1260;99194;-76
2023/01/10 14:58:02;;;;;;;48.60;28.80;;;;;;;5.91;99.47;100745.94;105808;1260;97711;-75
2023/01/10 15:00:51;;;;;;;46.00;26.90;;;;;;;5.91;99.34;100744.24;105301;1262;96689;-75
2023/01/10 15:03:44;;;;;;;47.60;27.60;;;;;;;5.89;99.24;100743.52;105422;1258;97903;-77
2023/01/10 15:07:01;;;;;;;41.00;25.60;;;;;;;5.88;99.23;100744.69;105996;1263;101291;-81
2023/01/10 15:10:21;;;;;;;47.50;27.20;;;;;;;5.85;99.07;100743.73;106917;1261;100398;-87
2023/01/10 15:13:08;;;;;;;49.10;26.20;;;;;;;5.83;98.97;100750.64;106288;1257;97736;-85
2023/01/10 15:15:57;;;;;;;48.50;27.80;;;;;;;5.82;98.83;100757.16;106127;1257;96722;-84
2023/01/10 15:18:59;;;;;;;44.00;25.70;;;;;;;5.79;98.84;100754.44;106169;1257;96635;-84
2023/01/10 15:21:45;;;;;;;48.80;28.50;;;;;;;5.74;98.61;100753.37;106315;1257;99939;-82
2023/01/10 15:24:33;;;;;;;45.80;25.60;;;;;;;5.71;98.78;100757.69;106175;1257;99092;-85
2023/01/10 15:27:18;;;;;;;42.60;25.20;;;;;;;5.67;98.64;100759.21;106511;1257;98402;-75
2023/01/10 15:30:07;;;;;;;45.70;26.40;;;;;;;5.64;98.81;100764.63;105241;1263;96672;-73
2023/01/10 15:33:39;;;;;;;;;;;;;;;;;;;;;
2023/01/10 15:37:12;;;;;;;48.10;26.80;;;;;;;5.64;98.83;100779.01;105408;1260;102617;-75
2023/01/10 15:39:57;;;;;;;45.70;26.40;;;;;;;5.63;98.84;100785.44;105246;1258;99066;-75
2023/01/10 15:42:43;;;;;;;47.50;26.40;;;;;;;5.63;98.85;100786.64;105253;1260;98984;-76
2023/01/10 15:45:36;;;;;;;47.60;26.90;;;;;;;5.63;98.92;100786.17;105141;1262;96696;-75
2023/01/10 15:48:42;;;;;;;46.70;26.80;;;;;;;5.62;98.80;100790.52;106409;1257;96607;-87
2023/01/10 15:51:34;;;;;;;39.30;23.90;;;;;;;5.60;98.51;100793.19;106845;1257;101259;-80
2023/01/10 15:54:23;;;;;;;44.00;25.00;;;;;;;5.60;98.65;100799.77;106483;1257;100102;-89
2023/01/10 15:57:35;;;;;;;45.80;27.30;;;;;;;5.59;98.60;100810.62;106314;1262;99399;-82
2023/01/10 16:00:22;;;;;;;50.40;30.50;;;;;;;5.56;98.49;100819.08;106319;1257;96762;-76
2023/01/10 16:03:27;;;;;;;53.60;31.70;;;;;;;5.54;98.67;100826.73;105449;1260;98355;-83
2023/01/10 16:06:21;;;;;;;53.60;30.50;;;;;;;5.54;98.71;100824.04;106267;1264;101267;-80
2023/01/10 16:09:21;;;;;;;45.10;28.60;;;;;;;5.55;98.82;100823.41;106516;1257;100416;-82
2023/01/10 16:15:34;;;;;;;59.90;33.80;;;;;;;5.53;98.91;100826.09;106217;1257;96620;-81
2023/01/10 16:18:20;;;;;;;56.10;34.20;;;;;;;5.53;98.78;100832.47;106433;1256;97387;-80